Time;durP1;ratioP1;P1;durP2;ratioP2;P2;SDS_P1;SDS_P2;PMS_P1;PMS_P2;Temp;Humidity;BMP_temperature;BMP_pressure;BME280_temperature;BME280_humidity;BME280_pressure;Samples;Min_cycle;Max_cycle;Signal;HPM_P1;HPM_P2
2021/05/15 00:00:51;;;;;;;1.80;0.70;;;;;;;11.00;81.88;95743.06;5058487;28;20198;-70
2021/05/15 00:03:17;;;;;;;0.80;0.80;;;;;;;11.12;81.87;95753.47;5073642;28;20198;-64
2021/05/15 00:05:42;;;;;;;6.10;0.90;;;;;;;10.81;83.08;95749.66;5073704;28;20433;-70
2021/05/15 00:08:08;;;;;;;1.03;0.90;;;;;;;10.88;83.12;95747.66;5073168;28;20174;-70
2021/05/15 00:10:33;;;;;;;1.00;1.00;;;;;;;10.68;83.16;95754.44;5073586;28;20193;-65
2021/05/15 00:12:59;;;;;;;1.73;1.00;;;;;;;10.75;83.62;95742.72;5070390;28;20276;-70
2021/05/15 00:15:26;;;;;;;3.03;1.03;;;;;;;10.86;82.29;95743.66;5056344;28;20458;-70
2021/05/15 00:17:52;;;;;;;0.80;0.80;;;;;;;11.15;81.51;95742.47;5073085;28;20196;-64
2021/05/15 00:20:17;;;;;;;1.27;1.00;;;;;;;10.89;82.29;95741.34;5073418;28;20922;-69
2021/05/15 00:22:43;;;;;;;2.63;0.90;;;;;;;10.67;83.18;95737.88;5073315;28;20610;-64
2021/05/15 00:25:11;;;;;;;0.80;0.80;;;;;;;10.61;83.20;95745.94;5072637;28;20170;-65
2021/05/15 00:27:37;;;;;;;3.13;1.03;;;;;;;10.85;82.34;95736.81;5073163;28;20418;-69
2021/05/15 00:30:08;;;;;;;1.43;0.77;;;;;;;10.67;81.79;95729.22;5070509;28;20453;-64
2021/05/15 00:32:34;;;;;;;0.83;0.80;;;;;;;10.74;81.52;95728.00;5053324;28;20451;-64
2021/05/15 00:34:59;;;;;;;2.03;0.80;;;;;;;10.60;82.25;95733.84;5052968;28;20482;-64
2021/05/15 00:37:25;;;;;;;1.17;0.70;;;;;;;10.48;82.94;95733.13;5065540;28;20192;-70
2021/05/15 00:39:50;;;;;;;1.00;0.70;;;;;;;10.58;82.31;95730.66;5075582;28;20197;-69
2021/05/15 00:42:16;;;;;;;0.73;0.73;;;;;;;10.72;81.38;95731.91;5077326;28;20571;-69
2021/05/15 00:47:27;;;;;;;0.90;0.80;;;;;;;10.42;82.47;95719.13;5057077;28;20846;-70
2021/05/15 00:49:53;;;;;;;0.70;0.70;;;;;;;10.42;82.72;95715.72;5057014;28;20799;-69
2021/05/15 00:52:20;;;;;;;0.80;0.80;;;;;;;10.40;82.27;95717.78;5057293;28;20391;-64
2021/05/15 00:54:46;;;;;;;0.90;0.67;;;;;;;10.46;82.25;95720.22;5070026;28;20206;-70
2021/05/15 00:57:12;;;;;;;0.70;0.70;;;;;;;10.20;83.56;95718.25;5076979;28;20420;-64
2021/05/15 00:59:39;;;;;;;0.87;0.87;;;;;;;10.34;82.89;95709.03;5073706;28;20443;-64
2021/05/15 01:02:08;;;;;;;1.07;0.90;;;;;;;10.53;82.11;95717.44;5057608;28;20428;-64
2021/05/15 01:04:34;;;;;;;0.83;0.60;;;;;;;10.45;82.35;95712.59;5071382;28;20420;-65
2021/05/15 01:07:01;;;;;;;0.60;0.60;;;;;;;10.48;82.83;95712.09;5072416;28;20431;-65
2021/05/15 01:09:27;;;;;;;1.57;0.97;;;;;;;10.43;82.26;95706.78;5056882;28;20433;-64
2021/05/15 01:11:52;;;;;;;2.50;1.20;;;;;;;10.23;83.55;95709.91;5056967;28;20413;-69
2021/05/15 01:14:18;;;;;;;0.90;0.90;;;;;;;10.17;83.92;95708.22;5056574;28;20186;-64
2021/05/15 01:16:43;;;;;;;0.80;0.70;;;;;;;10.02;84.74;95713.19;5074570;28;20257;-64
2021/05/15 01:19:12;;;;;;;4.10;1.20;;;;;;;10.10;84.09;95716.28;5062412;28;20612;-69
2021/05/15 01:21:37;;;;;;;0.80;0.80;;;;;;;10.11;84.71;95719.66;5060229;28;20171;-69
2021/05/15 01:24:03;;;;;;;0.70;0.70;;;;;;;9.97;85.25;95718.38;5076510;28;20413;-64
2021/05/15 01:26:31;;;;;;;1.00;0.93;;;;;;;10.04;85.00;95719.00;5074742;28;20185;-69
2021/05/15 01:28:59;;;;;;;2.10;1.00;;;;;;;10.18;84.37;95720.34;5070464;28;20448;-64
2021/05/15 01:31:25;;;;;;;1.13;1.03;;;;;;;10.18;84.02;95715.88;5073357;28;20422;-69
2021/05/15 01:33:52;;;;;;;1.17;1.00;;;;;;;10.00;84.68;95715.28;5061519;28;20426;-70
2021/05/15 01:36:18;;;;;;;1.37;1.13;;;;;;;10.15;84.34;95710.28;5057320;28;20450;-70
2021/05/15 01:38:44;;;;;;;1.23;0.80;;;;;;;10.30;83.78;95716.59;5056904;28;20424;-71
2021/05/15 01:41:12;;;;;;;1.90;0.90;;;;;;;10.36;83.43;95723.50;5056428;28;20409;-69
2021/05/15 01:43:38;;;;;;;1.03;1.03;;;;;;;10.38;83.51;95718.03;5056540;28;20258;-63
2021/05/15 01:46:05;;;;;;;0.70;0.70;;;;;;;10.31;83.58;95723.44;5056309;28;20491;-64
2021/05/15 01:48:31;;;;;;;1.83;1.20;;;;;;;10.24;83.99;95714.91;5075181;28;20473;-69
2021/05/15 01:51:02;;;;;;;0.93;0.93;;;;;;;10.50;82.61;95723.16;5074842;28;20844;-64
2021/05/15 01:53:30;;;;;;;1.00;1.00;;;;;;;10.25;83.33;95719.13;5075970;28;20404;-64
2021/05/15 01:55:56;;;;;;;0.93;0.93;;;;;;;10.25;83.72;95719.13;5074218;28;20501;-69
2021/05/15 01:58:22;;;;;;;0.90;0.90;;;;;;;10.19;84.18;95712.22;5075484;28;20399;-64
2021/05/15 02:00:48;;;;;;;0.80;0.80;;;;;;;10.43;83.13;95714.66;5075897;28;20481;-64
2021/05/15 02:03:14;;;;;;;1.13;1.00;;;;;;;10.07;84.37;95715.94;5060572;28;20660;-64
2021/05/15 02:05:39;;;;;;;1.10;0.80;;;;;;;10.11;84.66;95712.59;5055734;28;20307;-63
2021/05/15 02:08:05;;;;;;;2.63;0.87;;;;;;;10.38;82.99;95709.34;5055776;28;20185;-64
2021/05/15 02:10:30;;;;;;;0.97;0.90;;;;;;;9.99;85.56;95701.38;5058338;28;20204;-69
2021/05/15 02:12:56;;;;;;;0.80;0.80;;;;;;;10.24;84.27;95691.28;5072794;28;20284;-69
2021/05/15 02:15:22;;;;;;;1.23;0.90;;;;;;;10.02;84.83;95700.88;5075646;28;20281;-64
2021/05/15 02:17:47;;;;;;;1.47;1.03;;;;;;;10.05;85.38;95703.03;5073926;28;20165;-64
2021/05/15 02:20:13;;;;;;;1.10;1.00;;;;;;;10.19;85.09;95700.91;5075666;28;20660;-64
2021/05/15 02:22:38;;;;;;;1.13;0.93;;;;;;;10.14;85.06;95703.47;5075495;28;20174;-64
2021/05/15 02:25:05;;;;;;;1.30;1.20;;;;;;;9.52;88.57;95701.84;5075070;28;20944;-64
2021/05/15 02:27:30;;;;;;;1.03;0.97;;;;;;;9.83;86.81;95694.28;5059148;28;20639;-69
2021/05/15 02:29:56;;;;;;;0.93;0.93;;;;;;;9.79;87.76;95690.53;5072109;28;20493;-64
2021/05/15 02:32:21;;;;;;;1.20;1.10;;;;;;;9.98;87.03;95685.88;5073511;28;20180;-65
2021/05/15 02:34:46;;;;;;;1.43;1.17;;;;;;;9.80;87.66;95679.00;5075160;28;20621;-64
2021/05/15 02:37:12;;;;;;;1.40;1.30;;;;;;;10.04;86.44;95677.81;5074813;28;20211;-69
2021/05/15 02:39:37;;;;;;;1.63;1.00;;;;;;;9.95;86.61;95678.44;5059841;28;20197;-69
2021/05/15 02:42:03;;;;;;;1.00;1.00;;;;;;;10.14;85.62;95671.97;5055167;28;20236;-64
2021/05/15 02:44:28;;;;;;;1.27;1.10;;;;;;;9.86;87.42;95664.94;5053788;28;20184;-70
2021/05/15 02:46:54;;;;;;;1.37;1.27;;;;;;;9.74;88.12;95672.09;5054764;28;20215;-69
2021/05/15 02:49:19;;;;;;;1.33;1.10;;;;;;;9.61;88.95;95671.59;5054836;28;20190;-69
2021/05/15 02:51:44;;;;;;;1.13;0.87;;;;;;;9.91;88.11;95672.88;5054814;28;20181;-69
2021/05/15 02:54:10;;;;;;;2.20;1.27;;;;;;;10.08;86.79;95672.88;5067396;28;20188;-69
2021/05/15 02:56:35;;;;;;;3.17;1.00;;;;;;;9.89;87.23;95676.78;5064398;28;20202;-69
2021/05/15 02:59:01;;;;;;;0.93;0.83;;;;;;;9.80;87.68;95673.75;5055131;28;20277;-68
2021/05/15 03:01:26;;;;;;;0.80;0.80;;;;;;;10.02;86.60;95679.06;5054223;28;20194;-64
2021/05/15 03:03:52;;;;;;;1.27;1.00;;;;;;;9.76;87.92;95670.03;5054632;28;20174;-64
2021/05/15 03:06:17;;;;;;;1.70;1.10;;;;;;;10.04;87.14;95671.75;5054585;28;20185;-69
2021/05/15 03:08:44;;;;;;;1.23;0.83;;;;;;;10.06;86.45;95667.06;5064994;28;20173;-64
2021/05/15 03:11:09;;;;;;;1.13;0.70;;;;;;;10.15;85.77;95663.84;5067972;28;20213;-64
2021/05/15 03:13:34;;;;;;;2.43;0.90;;;;;;;10.40;84.46;95665.25;5054520;28;20569;-66
2021/05/15 03:16:00;;;;;;;1.47;1.10;;;;;;;10.44;84.25;95661.91;5054649;28;20594;-64
2021/05/15 03:18:25;;;;;;;1.00;1.00;;;;;;;10.34;84.58;95667.78;5054030;28;20170;-64
2021/05/15 03:20:50;;;;;;;0.83;0.83;;;;;;;10.40;84.10;95670.50;5054445;28;20197;-64
2021/05/15 03:23:16;;;;;;;1.37;1.27;;;;;;;10.14;84.90;95669.34;5054333;28;20171;-64
2021/05/15 03:25:41;;;;;;;1.13;1.13;;;;;;;10.22;84.44;95663.66;5058088;28;20177;-64
2021/05/15 03:28:07;;;;;;;1.43;1.20;;;;;;;9.73;87.14;95670.47;5065075;28;20675;-69
2021/05/15 03:30:32;;;;;;;2.37;1.10;;;;;;;10.08;85.27;95665.81;5054214;28;20212;-65
2021/05/15 03:32:57;;;;;;;2.70;1.50;;;;;;;9.89;86.08;95666.28;5054099;28;20170;-64
2021/05/15 03:35:23;;;;;;;1.30;1.20;;;;;;;9.97;85.61;95661.44;5053973;28;20204;-64
2021/05/15 03:37:48;;;;;;;1.60;1.30;;;;;;;10.14;85.23;95657.03;5056614;28;20246;-64
2021/05/15 03:40:14;;;;;;;1.20;1.10;;;;;;;9.88;86.86;95656.81;5060556;28;20202;-64
2021/05/15 03:42:39;;;;;;;1.40;1.30;;;;;;;10.09;85.72;95659.53;5054003;28;20183;-69
2021/05/15 03:45:07;;;;;;;1.47;1.00;;;;;;;9.95;85.99;95658.25;5053959;28;20242;-64
2021/05/15 03:47:32;;;;;;;0.93;0.80;;;;;;;9.82;86.97;95663.81;5053886;28;20219;-64
2021/05/15 03:49:57;;;;;;;1.13;0.80;;;;;;;10.20;85.17;95658.66;5053592;28;20430;-69
2021/05/15 03:52:23;;;;;;;2.30;1.00;;;;;;;9.95;86.42;95663.50;5054201;28;20183;-69
2021/05/15 03:54:49;;;;;;;1.30;1.20;;;;;;;10.17;85.97;95655.72;5066822;28;20200;-69
2021/05/15 03:57:14;;;;;;;1.10;1.00;;;;;;;10.41;84.57;95661.59;5056331;28;20540;-64
2021/05/15 03:59:40;;;;;;;2.03;1.20;;;;;;;10.25;85.35;95658.75;5053772;28;20199;-65
2021/05/15 04:02:05;;;;;;;1.30;1.20;;;;;;;10.57;84.68;95658.13;5054027;28;20649;-64
2021/05/15 04:04:32;;;;;;;1.17;1.17;;;;;;;10.64;83.87;95656.13;5053569;28;20274;-69
2021/05/15 04:06:57;;;;;;;1.47;0.90;;;;;;;11.06;81.16;95660.59;5053367;28;20637;-65
2021/05/15 04:09:22;;;;;;;1.03;1.03;;;;;;;11.10;81.70;95655.66;5068370;28;20458;-69
2021/05/15 04:11:48;;;;;;;0.80;0.80;;;;;;;11.29;80.59;95659.53;5073550;28;20174;-64
2021/05/15 04:19:24;;;;;;;0.87;0.87;;;;;;;11.34;79.80;95655.13;5073796;28;20432;-64
2021/05/15 04:21:51;;;;;;;1.43;1.30;;;;;;;11.52;79.59;95650.56;5071690;28;20482;-69
2021/05/15 04:24:16;;;;;;;1.17;1.17;;;;;;;11.54;80.73;95654.53;5057904;28;20178;-69
2021/05/15 04:26:41;;;;;;;2.90;1.20;;;;;;;11.69;78.54;95651.28;5073284;28;20405;-69
2021/05/15 04:29:07;;;;;;;1.00;1.00;;;;;;;11.04;81.33;95646.09;5072550;28;20205;-68
2021/05/15 04:31:32;;;;;;;0.87;0.87;;;;;;;11.12;80.71;95648.31;5073555;28;20646;-64
2021/05/15 04:33:57;;;;;;;1.10;1.00;;;;;;;11.25;80.78;95650.56;5073351;28;20171;-69
2021/05/15 04:36:23;;;;;;;1.20;0.80;;;;;;;10.87;81.95;95656.69;5068956;28;20254;-68
2021/05/15 04:38:52;;;;;;;1.20;1.10;;;;;;;10.69;82.30;95662.22;5055232;28;20229;-69
2021/05/15 04:41:17;;;;;;;1.67;1.03;;;;;;;10.70;83.26;95665.66;5053337;28;20572;-64
2021/05/15 04:43:43;;;;;;;1.70;1.00;;;;;;;10.67;83.18;95659.06;5053264;28;20409;-64
2021/05/15 04:46:08;;;;;;;0.90;0.90;;;;;;;11.10;80.56;95669.59;5053120;28;20163;-69
2021/05/15 04:48:34;;;;;;;1.30;0.90;;;;;;;10.97;81.84;95667.34;5052885;28;20178;-69
2021/05/15 04:51:00;;;;;;;0.70;0.70;;;;;;;10.81;81.55;95668.19;5054084;28;20190;-69
2021/05/15 04:53:25;;;;;;;1.60;1.00;;;;;;;10.72;82.13;95672.28;5060128;28;21011;-64
2021/05/15 04:55:50;;;;;;;1.77;0.90;;;;;;;10.72;82.29;95669.66;5061531;28;20199;-64
2021/05/15 04:58:16;;;;;;;1.27;0.90;;;;;;;10.64;81.91;95677.13;5071816;28;20182;-65
2021/05/15 05:00:41;;;;;;;0.93;0.93;;;;;;;10.62;82.04;95677.38;5073142;28;20288;-64
2021/05/15 05:03:06;;;;;;;1.90;1.57;;;;;;;10.42;82.46;95676.31;5073037;28;20205;-64
2021/05/15 05:05:32;;;;;;;0.87;0.87;;;;;;;10.40;83.15;95673.91;5060224;28;20181;-69
2021/05/15 05:07:57;;;;;;;1.93;1.07;;;;;;;9.94;85.12;95684.75;5060236;28;20585;-64
2021/05/15 05:10:22;;;;;;;1.47;1.20;;;;;;;10.04;84.81;95671.75;5062172;28;20202;-64
2021/05/15 05:12:48;;;;;;;1.40;1.30;;;;;;;10.13;85.03;95671.16;5053123;28;20171;-68
2021/05/15 05:15:13;;;;;;;1.10;1.00;;;;;;;10.36;84.15;95670.22;5072807;28;20588;-64
2021/05/15 05:17:38;;;;;;;1.87;1.77;;;;;;;10.38;84.31;95668.91;5071106;28;20202;-64
2021/05/15 05:20:05;;;;;;;1.20;1.10;;;;;;;10.50;83.89;95662.75;5073323;28;20197;-64
2021/05/15 05:22:30;;;;;;;2.30;1.30;;;;;;;10.72;82.63;95666.22;5072945;28;20218;-64
2021/05/15 05:24:56;;;;;;;0.83;0.83;;;;;;;10.67;83.12;95659.06;5065137;28;20509;-69
2021/05/15 05:27:22;;;;;;;1.40;1.30;;;;;;;10.61;83.02;95660.03;5056276;28;20227;-65
2021/05/15 05:29:48;;;;;;;2.10;0.70;;;;;;;10.71;83.10;95660.16;5056415;28;20191;-69
2021/05/15 05:32:13;;;;;;;1.30;1.20;;;;;;;10.94;82.06;95653.88;5056521;28;20420;-69
2021/05/15 05:34:39;;;;;;;1.40;1.30;;;;;;;10.97;81.60;95651.56;5056456;28;20260;-69
2021/05/15 05:37:05;;;;;;;0.80;0.80;;;;;;;10.77;82.77;95658.41;5054765;28;20298;-69
2021/05/15 05:39:31;;;;;;;0.93;0.93;;;;;;;11.03;81.00;95660.31;5076385;28;20562;-70
2021/05/15 05:41:57;;;;;;;2.50;0.80;;;;;;;11.20;80.26;95666.28;5076251;28;20412;-69
2021/05/15 05:44:23;;;;;;;0.80;0.80;;;;;;;11.20;79.60;95663.63;5076431;28;20498;-63
2021/05/15 05:46:48;;;;;;;0.90;0.90;;;;;;;10.89;80.59;95654.59;5066319;28;20425;-70
2021/05/15 05:49:13;;;;;;;1.20;0.97;;;;;;;11.02;80.58;95661.31;5055766;28;20215;-69
2021/05/15 05:51:39;;;;;;;1.07;0.87;;;;;;;10.86;80.59;95662.19;5056071;28;20634;-70
2021/05/15 05:54:05;;;;;;;0.70;0.70;;;;;;;11.08;79.73;95655.09;5074736;28;20185;-64
2021/05/15 05:56:30;;;;;;;0.70;0.70;;;;;;;10.87;80.77;95655.91;5076079;28;20193;-64
2021/05/15 05:58:56;;;;;;;0.73;0.73;;;;;;;11.07;78.96;95653.53;5075556;28;20217;-70
2021/05/15 06:01:22;;;;;;;1.60;0.97;;;;;;;11.02;79.98;95653.44;5064896;28;20611;-64
2021/05/15 06:03:47;;;;;;;0.87;0.87;;;;;;;10.89;79.81;95648.53;5056974;28;20187;-64
2021/05/15 06:06:13;;;;;;;2.03;0.73;;;;;;;10.74;80.08;95648.38;5055724;28;20431;-64
2021/05/15 06:08:38;;;;;;;0.73;0.73;;;;;;;11.28;79.20;95647.44;5063474;28;20263;-64
2021/05/15 06:11:05;;;;;;;1.60;1.10;;;;;;;11.10;78.56;95648.56;5067456;28;20182;-69
2021/05/15 06:13:30;;;;;;;0.93;0.93;;;;;;;11.18;78.53;95657.81;5074354;28;20542;-64
2021/05/15 06:15:56;;;;;;;0.90;0.90;;;;;;;11.03;79.57;95655.81;5075583;28;20467;-64
2021/05/15 06:18:21;;;;;;;1.23;0.80;;;;;;;11.15;78.88;95653.06;5075303;28;20236;-64
2021/05/15 06:20:47;;;;;;;0.83;0.83;;;;;;;11.33;78.68;95650.09;5059316;28;20199;-64
2021/05/15 06:23:14;;;;;;;1.90;0.80;;;;;;;11.48;79.24;95637.13;5055398;28;20615;-69
2021/05/15 06:25:39;;;;;;;0.70;0.70;;;;;;;11.83;76.25;95645.34;5065698;28;20417;-63
2021/05/15 06:28:05;;;;;;;1.50;0.90;;;;;;;11.80;77.30;95645.84;5075130;28;20918;-64
2021/05/15 06:30:30;;;;;;;1.97;0.90;;;;;;;11.66;78.00;95639.44;5055176;28;20207;-63
2021/05/15 06:32:56;;;;;;;0.70;0.70;;;;;;;11.82;77.48;95630.59;5055121;28;20185;-70
2021/05/15 06:35:21;;;;;;;1.00;0.77;;;;;;;12.10;76.69;95632.91;5075371;28;20669;-64
2021/05/15 06:37:46;;;;;;;0.73;0.73;;;;;;;12.21;75.91;95639.84;5073960;28;20177;-70
2021/05/15 06:40:12;;;;;;;4.10;1.17;;;;;;;12.49;75.66;95637.91;5075023;28;20186;-65
2021/05/15 06:42:38;;;;;;;1.70;1.00;;;;;;;11.82;77.01;95635.88;5066995;28;20254;-70
2021/05/15 06:45:05;;;;;;;1.03;0.93;;;;;;;11.76;77.02;95630.81;5055081;28;20167;-64
2021/05/15 06:47:31;;;;;;;1.33;0.90;;;;;;;11.88;76.37;95631.44;5054884;28;20166;-67
2021/05/15 06:49:56;;;;;;;1.10;0.80;;;;;;;12.06;76.31;95628.41;5074332;28;20506;-70
2021/05/15 06:52:22;;;;;;;1.30;0.97;;;;;;;11.79;77.27;95630.31;5075252;28;20690;-70
2021/05/15 06:54:47;;;;;;;0.97;0.80;;;;;;;12.07;75.99;95625.53;5074974;28;20191;-64
2021/05/15 06:57:12;;;;;;;1.03;0.80;;;;;;;11.99;76.15;95643.66;5073484;28;20178;-65
2021/05/15 06:59:38;;;;;;;1.37;0.80;;;;;;;12.18;74.98;95631.66;5074687;28;20214;-64
2021/05/15 07:02:04;;;;;;;1.00;0.90;;;;;;;12.06;75.75;95637.13;5075034;28;20183;-70
2021/05/15 07:04:29;;;;;;;1.53;1.00;;;;;;;12.04;76.53;95631.31;5055140;28;20176;-70
2021/05/15 07:06:55;;;;;;;0.80;0.80;;;;;;;11.83;76.55;95642.72;5054594;28;20167;-64
2021/05/15 07:09:21;;;;;;;1.80;1.50;;;;;;;11.99;76.04;95626.00;5054400;28;20214;-70
2021/05/15 07:11:48;;;;;;;1.43;1.30;;;;;;;11.88;76.37;95628.81;5072105;28;20905;-70
2021/05/15 07:14:14;;;;;;;0.70;0.70;;;;;;;12.06;75.87;95628.41;5074663;28;20254;-65
2021/05/15 07:16:39;;;;;;;1.43;1.10;;;;;;;12.20;76.53;95626.94;5074414;28;20658;-70
2021/05/15 07:19:05;;;;;;;2.03;1.07;;;;;;;12.03;75.47;95629.72;5057155;28;20282;-71
2021/05/15 07:21:30;;;;;;;1.50;0.97;;;;;;;12.47;75.02;95618.91;5054287;28;20634;-70
2021/05/15 07:23:56;;;;;;;1.63;1.10;;;;;;;12.51;74.56;95627.91;5054203;28;20182;-64
2021/05/15 07:26:21;;;;;;;0.90;0.90;;;;;;;12.21;75.65;95618.78;5054227;28;20237;-66
2021/05/15 07:28:47;;;;;;;3.23;1.10;;;;;;;12.56;74.97;95620.03;5053626;28;20414;-67
2021/05/15 07:31:12;;;;;;;1.03;1.03;;;;;;;12.18;75.05;95616.66;5054183;28;20273;-63
2021/05/15 07:33:38;;;;;;;2.00;1.00;;;;;;;12.46;73.77;95622.63;5062106;28;20176;-68
2021/05/15 07:36:04;;;;;;;0.80;0.80;;;;;;;12.41;75.46;95610.19;5067627;28;20199;-66
2021/05/15 07:38:30;;;;;;;0.90;0.90;;;;;;;12.21;75.19;95610.09;5071436;28;20966;-64
2021/05/15 07:40:56;;;;;;;1.43;1.00;;;;;;;12.73;73.54;95602.19;5074390;28;20232;-62
2021/05/15 07:43:26;;;;;;;1.00;0.90;;;;;;;12.28;73.37;95606.16;5073914;28;20171;-64
2021/05/15 07:45:55;;;;;;;3.30;0.90;;;;;;;12.22;76.12;95601.94;5055993;28;20912;-64
2021/05/15 07:51:20;;;;;;;1.10;0.87;;;;;;;12.60;72.90;95597.38;5051531;28;20454;-65
2021/05/15 07:53:50;;;;;;;1.37;1.00;;;;;;;12.12;73.83;95596.59;5059913;28;20420;-63
2021/05/15 07:56:16;;;;;;;3.37;1.10;;;;;;;12.09;73.88;95591.84;5069563;28;21005;-65
2021/05/15 07:58:42;;;;;;;3.70;1.00;;;;;;;12.30;73.26;95596.19;5069805;28;20459;-64
2021/05/15 08:01:08;;;;;;;1.13;1.00;;;;;;;12.62;73.50;95595.28;5068898;28;20557;-63
2021/05/15 08:03:33;;;;;;;1.63;0.80;;;;;;;12.43;72.50;95602.06;5055459;28;20429;-62
2021/05/15 08:05:59;;;;;;;0.80;0.80;;;;;;;12.66;72.28;95599.00;5049799;28;20175;-66
2021/05/15 08:08:25;;;;;;;1.10;1.00;;;;;;;12.43;70.50;95591.53;5049398;28;20827;-66
2021/05/15 08:10:50;;;;;;;1.60;1.03;;;;;;;12.58;71.87;95599.47;5050067;28;20203;-65
2021/05/15 08:13:16;;;;;;;0.90;0.90;;;;;;;12.78;71.11;95599.56;5050238;28;20414;-62
2021/05/15 08:15:41;;;;;;;1.00;0.90;;;;;;;12.91;70.29;95601.75;5070365;28;20194;-62
2021/05/15 08:18:07;;;;;;;1.13;0.87;;;;;;;12.48;72.33;95597.63;5069592;28;20894;-66
2021/05/15 08:20:33;;;;;;;1.17;1.00;;;;;;;12.52;72.25;95601.28;5068142;28;20323;-65
2021/05/15 08:22:58;;;;;;;0.90;0.80;;;;;;;12.54;72.30;95598.44;5069022;28;20179;-65
2021/05/15 08:25:25;;;;;;;1.70;0.80;;;;;;;12.75;72.16;95592.19;5069862;28;20308;-66
2021/05/15 08:27:57;;;;;;;1.10;0.97;;;;;;;12.54;72.59;95596.56;5069537;28;20193;-65
2021/05/15 08:30:26;;;;;;;1.00;1.00;;;;;;;12.83;72.19;95591.69;5066576;28;20449;-65
2021/05/15 08:32:53;;;;;;;1.53;0.90;;;;;;;12.82;72.62;95590.91;5067665;28;20421;-65
2021/05/15 08:35:19;;;;;;;1.93;0.80;;;;;;;12.64;71.19;95591.38;5059003;28;20457;-66
2021/05/15 08:37:46;;;;;;;1.10;1.00;;;;;;;12.46;73.47;95586.53;5048094;28;20430;-65
2021/05/15 08:40:12;;;;;;;1.53;0.87;;;;;;;12.71;72.18;95586.66;5049596;28;20955;-64
2021/05/15 08:42:40;;;;;;;1.30;1.20;;;;;;;12.70;72.52;95584.28;5049614;28;20418;-65
2021/05/15 08:45:11;;;;;;;3.83;0.70;;;;;;;12.84;72.91;95572.19;5064977;28;20566;-64
2021/05/15 08:47:38;;;;;;;0.70;0.70;;;;;;;13.10;71.23;95571.22;5066777;28;20425;-66
2021/05/15 08:50:07;;;;;;;1.80;0.80;;;;;;;12.98;71.02;95589.09;5057186;28;20466;-64
2021/05/15 08:52:37;;;;;;;1.53;1.30;;;;;;;12.65;71.96;95587.66;5048264;28;20441;-65
2021/05/15 08:55:04;;;;;;;1.17;0.97;;;;;;;12.83;72.13;95579.28;5049452;28;20465;-65
2021/05/15 08:57:29;;;;;;;0.83;0.83;;;;;;;12.82;71.17;95577.72;5049022;28;20410;-65
2021/05/15 08:59:55;;;;;;;2.07;1.00;;;;;;;12.87;71.10;95575.09;5049961;28;20563;-64
2021/05/15 09:02:20;;;;;;;1.10;0.70;;;;;;;12.83;72.32;95573.22;5053644;28;20645;-65
2021/05/15 09:04:46;;;;;;;1.07;0.80;;;;;;;12.97;70.79;95588.31;5062136;28;20182;-65
2021/05/15 09:07:11;;;;;;;1.10;1.10;;;;;;;13.08;70.34;95576.00;5073135;28;20264;-64
2021/05/15 09:09:37;;;;;;;1.30;1.20;;;;;;;13.28;70.56;95570.72;5073107;28;20237;-68
2021/05/15 09:12:03;;;;;;;1.23;0.90;;;;;;;13.42;69.26;95569.19;5073103;28;20220;-64
2021/05/15 09:14:29;;;;;;;2.30;1.17;;;;;;;13.57;69.63;95566.53;5073134;28;20197;-67
2021/05/15 09:16:56;;;;;;;3.90;1.00;;;;;;;13.59;68.36;95563.66;5072188;28;20939;-70
2021/05/15 09:19:24;;;;;;;1.20;1.10;;;;;;;13.43;67.81;95560.19;5072326;28;20467;-69
2021/05/15 09:22:03;;;;;;;1.33;0.87;;;;;;;13.33;69.74;95554.94;5073053;28;20401;-70
2021/05/15 09:24:32;;;;;;;1.90;1.23;;;;;;;13.75;68.53;95563.38;5072879;28;20405;-64
2021/05/15 09:27:01;;;;;;;1.47;0.80;;;;;;;13.95;68.18;95552.78;5059465;28;20418;-65
2021/05/15 09:29:26;;;;;;;1.70;1.20;;;;;;;14.12;66.90;95569.16;5052836;28;20429;-62
2021/05/15 09:31:52;;;;;;;1.43;1.20;;;;;;;14.09;67.26;95555.69;5053659;28;20425;-69
2021/05/15 09:34:17;;;;;;;2.30;1.07;;;;;;;14.62;65.57;95554.25;5052922;28;20171;-64
2021/05/15 09:36:45;;;;;;;2.90;1.50;;;;;;;14.67;64.49;95548.94;5052497;28;20218;-62
2021/05/15 09:39:21;;;;;;;1.57;1.47;;;;;;;14.37;64.84;95563.03;5050992;28;20677;-69
2021/05/15 09:41:49;;;;;;;1.20;1.10;;;;;;;14.23;65.58;95540.88;5065683;28;20503;-62
2021/05/15 09:44:24;;;;;;;1.30;1.30;;;;;;;14.29;64.94;95537.94;5072506;28;20409;-63
2021/05/15 09:46:50;;;;;;;1.53;0.97;;;;;;;14.09;65.33;95538.00;5071903;28;20665;-60
2021/05/15 09:49:20;;;;;;;0.90;0.90;;;;;;;14.23;65.35;95536.38;5072148;28;20504;-62
2021/05/15 09:51:55;;;;;;;1.77;0.90;;;;;;;14.51;63.89;95534.22;5071171;28;20772;-63
2021/05/15 09:54:22;;;;;;;2.00;1.20;;;;;;;14.32;62.79;95532.16;5072511;28;20412;-62
2021/05/15 09:56:59;;;;;;;1.00;1.00;;;;;;;13.89;64.09;95530.09;5060744;28;20498;-61
2021/05/15 09:59:28;;;;;;;2.23;1.07;;;;;;;13.94;62.96;95516.88;5059379;28;20766;-60
2021/05/15 10:01:59;;;;;;;1.23;0.90;;;;;;;13.93;63.68;95520.56;5076068;28;20400;-60
2021/05/15 10:04:26;;;;;;;1.20;1.00;;;;;;;14.03;64.44;95510.00;5075868;28;20425;-64
2021/05/15 10:06:52;;;;;;;2.40;1.30;;;;;;;14.47;64.54;95512.81;5075512;28;20401;-64
2021/05/15 10:09:44;;;;;;;2.40;1.30;;;;;;;14.23;64.23;95515.25;5075547;28;20483;-60
2021/05/15 10:12:10;;;;;;;3.03;1.00;;;;;;;14.50;63.06;95506.97;5059319;28;20269;-64
2021/05/15 10:14:35;;;;;;;1.60;1.30;;;;;;;14.39;61.96;95498.28;5055706;28;20501;-60
2021/05/15 10:17:01;;;;;;;2.40;1.10;;;;;;;14.27;60.98;95495.19;5055372;28;20171;-64
2021/05/15 10:19:28;;;;;;;3.00;1.00;;;;;;;14.44;61.13;95510.69;5055614;28;20662;-64
2021/05/15 10:21:55;;;;;;;1.03;1.00;;;;;;;14.18;61.09;95494.13;5055503;28;20568;-61
2021/05/15 10:24:22;;;;;;;1.37;1.20;;;;;;;14.15;61.31;95492.00;5055683;28;20772;-60
2021/05/15 10:27:04;;;;;;;1.27;0.90;;;;;;;14.32;60.55;95491.72;5067455;28;20776;-60
2021/05/15 10:29:39;;;;;;;2.40;1.30;;;;;;;14.46;61.38;95479.50;5060831;28;20444;-61
2021/05/15 10:32:08;;;;;;;0.83;0.80;;;;;;;14.46;60.54;95476.06;5063265;28;20413;-60
2021/05/15 10:34:34;;;;;;;1.73;1.10;;;;;;;15.05;60.07;95468.84;5065417;28;20414;-63
2021/05/15 10:37:02;;;;;;;2.03;1.10;;;;;;;15.52;58.91;95457.66;5054666;28;20532;-62
2021/05/15 10:39:29;;;;;;;1.27;1.17;;;;;;;15.29;56.42;95453.88;5055241;28;20465;-63
2021/05/15 10:41:56;;;;;;;2.63;1.10;;;;;;;15.28;56.11;95457.56;5058737;28;20425;-63
2021/05/15 10:44:21;;;;;;;1.83;1.10;;;;;;;15.04;56.67;95461.97;5075069;28;20407;-63
2021/05/15 10:46:52;;;;;;;2.03;1.00;;;;;;;15.17;55.97;95448.91;5073196;28;20405;-64
2021/05/15 10:49:21;;;;;;;1.80;0.80;;;;;;;15.23;56.29;95454.97;5068098;28;20195;-60
2021/05/15 10:51:55;;;;;;;0.90;0.90;;;;;;;15.46;56.72;95451.63;5074833;28;20984;-63
2021/05/15 10:54:48;;;;;;;1.20;1.00;;;;;;;15.15;53.82;95448.41;5074730;28;20397;-61
2021/05/15 10:57:23;;;;;;;5.33;1.30;;;;;;;14.91;53.62;95452.78;5064145;28;20432;-61
2021/05/15 11:00:07;;;;;;;3.10;1.10;;;;;;;15.12;54.20;95448.97;5071731;28;20956;-63
2021/05/15 11:02:36;;;;;;;0.80;0.80;;;;;;;14.77;54.48;95443.91;5054878;28;20459;-61
2021/05/15 11:05:10;;;;;;;3.40;1.00;;;;;;;14.38;54.88;95448.34;5054575;28;20409;-61
2021/05/15 11:07:38;;;;;;;3.43;1.00;;;;;;;14.62;54.84;95441.34;5054243;28;20455;-63
2021/05/15 11:10:09;;;;;;;2.93;0.97;;;;;;;14.88;54.71;95445.41;5061406;28;20441;-64
2021/05/15 11:12:46;;;;;;;2.00;0.90;;;;;;;14.84;55.65;95440.97;5063238;28;20789;-64
2021/05/15 11:15:16;;;;;;;1.57;0.80;;;;;;;14.49;55.83;95441.16;5067533;28;20452;-62
2021/05/15 11:17:42;;;;;;;1.80;0.90;;;;;;;14.49;56.44;95435.88;5073014;28;20413;-60
2021/05/15 11:20:08;;;;;;;4.33;1.23;;;;;;;14.70;55.93;95432.84;5059397;28;20434;-63
2021/05/15 11:22:51;;;;;;;2.00;1.20;;;;;;;14.36;55.66;95434.63;5053904;28;20402;-60
2021/05/15 11:25:24;;;;;;;0.77;0.77;;;;;;;14.70;54.80;95437.31;5054747;28;20164;-61
2021/05/15 11:27:58;;;;;;;3.33;1.10;;;;;;;14.50;54.96;95425.03;5057439;28;20792;-62
2021/05/15 11:30:28;;;;;;;1.10;0.90;;;;;;;14.74;55.51;95428.59;5054141;28;20831;-66
2021/05/15 11:33:04;;;;;;;1.87;1.10;;;;;;;14.95;54.43;95411.50;5054112;28;20409;-61
2021/05/15 11:35:38;;;;;;;2.17;1.20;;;;;;;15.02;55.49;95408.56;5053664;28;20458;-60
2021/05/15 11:38:09;;;;;;;2.83;1.13;;;;;;;15.44;53.54;95406.09;5053710;28;20416;-61
2021/05/15 11:40:53;;;;;;;1.10;1.00;;;;;;;15.49;52.35;95405.28;5054853;28;20850;-62
2021/05/15 11:43:31;;;;;;;2.80;0.90;;;;;;;15.89;53.80;95394.25;5063836;28;20433;-60